sensor_id;sensor_type;location;lat;lon;timestamp;P1;durP1;ratioP1;P2;durP2;ratioP2
66127;SDS011;52925;52.436;-1.952;2023-09-18T00:00:14;24.63;;;21.17;;
66127;SDS011;52925;52.436;-1.952;2023-09-18T00:01:34;25.30;;;21.20;;
66127;SDS011;52925;52.436;-1.952;2023-09-18T00:02:54;23.37;;;19.77;;
66127;SDS011;52925;52.436;-1.952;2023-09-18T00:04:16;27.83;;;22.60;;
66127;SDS011;52925;52.436;-1.952;2023-09-18T00:05:35;23.90;;;21.00;;
66127;SDS011;52925;52.436;-1.952;2023-09-18T00:06:56;23.80;;;20.37;;
66127;SDS011;52925;52.436;-1.952;2023-09-18T00:08:17;27.97;;;21.33;;
66127;SDS011;52925;52.436;-1.952;2023-09-18T00:09:38;29.00;;;22.70;;
66127;SDS011;52925;52.436;-1.952;2023-09-18T00:10:58;25.73;;;20.93;;
66127;SDS011;52925;52.436;-1.952;2023-09-18T00:12:21;23.67;;;20.30;;
66127;SDS011;52925;52.436;-1.952;2023-09-18T00:13:41;23.87;;;20.10;;
66127;SDS011;52925;52.436;-1.952;2023-09-18T00:15:02;28.33;;;20.60;;
66127;SDS011;52925;52.436;-1.952;2023-09-18T00:16:22;23.00;;;19.80;;
66127;SDS011;52925;52.436;-1.952;2023-09-18T00:17:45;26.23;;;21.10;;
66127;SDS011;52925;52.436;-1.952;2023-09-18T17:45:30;3.97;;;0.70;;
66127;SDS011;52925;52.436;-1.952;2023-09-18T17:46:51;3.20;;;0.70;;
66127;SDS011;52925;52.436;-1.952;2023-09-18T17:48:11;4.87;;;1.00;;
66127;SDS011;52925;52.436;-1.952;2023-09-18T17:49:32;5.60;;;0.80;;
66127;SDS011;52925;52.436;-1.952;2023-09-18T17:50:54;2.57;;;0.90;;
66127;SDS011;52925;52.436;-1.952;2023-09-18T17:52:17;2.90;;;0.63;;
66127;SDS011;52925;52.436;-1.952;2023-09-18T17:53:36;5.23;;;0.83;;
66127;SDS011;52925;52.436;-1.952;2023-09-18T17:54:57;2.03;;;0.60;;
66127;SDS011;52925;52.436;-1.952;2023-09-18T17:56:17;2.70;;;0.70;;
66127;SDS011;52925;52.436;-1.952;2023-09-18T17:57:38;4.17;;;0.90;;
66127;SDS011;52925;52.436;-1.952;2023-09-18T17:58:58;1.63;;;0.70;;
66127;SDS011;52925;52.436;-1.952;2023-09-18T18:00:19;2.07;;;0.70;;
66127;SDS011;52925;52.436;-1.952;2023-09-18T18:01:41;4.20;;;0.90;;
66127;SDS011;52925;52.436;-1.952;2023-09-18T18:03:02;2.27;;;0.63;;
66127;SDS011;52925;52.436;-1.952;2023-09-18T18:04:22;2.13;;;0.47;;
66127;SDS011;52925;52.436;-1.952;2023-09-18T18:05:43;1.50;;;0.57;;
66127;SDS011;52925;52.436;-1.952;2023-09-18T18:07:03;2.20;;;0.80;;
66127;SDS011;52925;52.436;-1.952;2023-09-18T18:08:24;2.10;;;0.77;;
66127;SDS011;52925;52.436;-1.952;2023-09-18T18:09:44;2.50;;;0.70;;
66127;SDS011;52925;52.436;-1.952;2023-09-18T18:11:05;2.17;;;0.60;;
66127;SDS011;52925;52.436;-1.952;2023-09-18T18:12:24;2.30;;;0.90;;
66127;SDS011;52925;52.436;-1.952;2023-09-18T18:13:45;3.37;;;0.50;;
66127;SDS011;52925;52.436;-1.952;2023-09-18T18:15:06;2.63;;;0.70;;
66127;SDS011;52925;52.436;-1.952;2023-09-18T18:16:30;4.07;;;0.60;;
66127;SDS011;52925;52.436;-1.952;2023-09-18T18:17:51;2.50;;;0.60;;
66127;SDS011;52925;52.436;-1.952;2023-09-18T18:19:12;4.13;;;0.60;;
66127;SDS011;52925;52.436;-1.952;2023-09-18T18:20:32;2.50;;;0.50;;
66127;SDS011;52925;52.436;-1.952;2023-09-18T18:21:54;1.20;;;0.50;;
66127;SDS011;52925;52.436;-1.952;2023-09-18T18:23:14;3.47;;;1.00;;
66127;SDS011;52925;52.436;-1.952;2023-09-18T18:24:35;2.30;;;0.53;;
66127;SDS011;52925;52.436;-1.952;2023-09-18T18:25:55;2.63;;;0.40;;
66127;SDS011;52925;52.436;-1.952;2023-09-18T18:27:16;2.57;;;0.50;;
66127;SDS011;52925;52.436;-1.952;2023-09-18T18:28:37;2.30;;;0.60;;
66127;SDS011;52925;52.436;-1.952;2023-09-18T18:29:58;0.90;;;0.40;;
66127;SDS011;52925;52.436;-1.952;2023-09-18T18:31:18;1.37;;;0.50;;
66127;SDS011;52925;52.436;-1.952;2023-09-18T18:32:38;3.57;;;0.50;;
66127;SDS011;52925;52.436;-1.952;2023-09-18T18:33:59;2.20;;;0.47;;
66127;SDS011;52925;52.436;-1.952;2023-09-18T18:35:22;0.70;;;0.40;;
66127;SDS011;52925;52.436;-1.952;2023-09-18T18:36:42;1.57;;;0.50;;
66127;SDS011;52925;52.436;-1.952;2023-09-18T18:38:03;1.93;;;0.50;;
66127;SDS011;52925;52.436;-1.952;2023-09-18T18:39:24;2.77;;;0.50;;
66127;SDS011;52925;52.436;-1.952;2023-09-18T18:40:54;2.77;;;0.47;;
66127;SDS011;52925;52.436;-1.952;2023-09-18T18:42:24;2.37;;;0.50;;
66127;SDS011;52925;52.436;-1.952;2023-09-18T18:43:45;2.73;;;0.47;;
66127;SDS011;52925;52.436;-1.952;2023-09-18T18:45:06;1.43;;;0.60;;
66127;SDS011;52925;52.436;-1.952;2023-09-18T18:46:27;1.30;;;0.40;;
66127;SDS011;52925;52.436;-1.952;2023-09-18T18:47:47;1.40;;;0.40;;
66127;SDS011;52925;52.436;-1.952;2023-09-18T18:49:10;1.30;;;0.40;;
66127;SDS011;52925;52.436;-1.952;2023-09-18T18:50:30;1.93;;;0.50;;
66127;SDS011;52925;52.436;-1.952;2023-09-18T18:51:54;0.83;;;0.40;;
66127;SDS011;52925;52.436;-1.952;2023-09-18T18:53:16;0.67;;;0.30;;
66127;SDS011;52925;52.436;-1.952;2023-09-18T18:54:38;2.73;;;0.50;;
66127;SDS011;52925;52.436;-1.952;2023-09-18T18:55:59;1.90;;;0.40;;
66127;SDS011;52925;52.436;-1.952;2023-09-18T18:57:19;2.77;;;0.40;;
66127;SDS011;52925;52.436;-1.952;2023-09-18T18:58:40;1.10;;;0.30;;
66127;SDS011;52925;52.436;-1.952;2023-09-18T19:00:00;1.70;;;0.37;;
66127;SDS011;52925;52.436;-1.952;2023-09-18T19:01:30;0.63;;;0.40;;
66127;SDS011;52925;52.436;-1.952;2023-09-18T19:02:49;1.60;;;0.50;;
66127;SDS011;52925;52.436;-1.952;2023-09-18T19:04:12;2.10;;;0.57;;
66127;SDS011;52925;52.436;-1.952;2023-09-18T19:05:31;2.47;;;0.50;;
66127;SDS011;52925;52.436;-1.952;2023-09-18T19:06:52;1.40;;;0.47;;
66127;SDS011;52925;52.436;-1.952;2023-09-18T19:08:12;0.80;;;0.33;;
66127;SDS011;52925;52.436;-1.952;2023-09-18T19:09:33;1.47;;;0.50;;
66127;SDS011;52925;52.436;-1.952;2023-09-18T19:10:53;2.23;;;0.60;;
66127;SDS011;52925;52.436;-1.952;2023-09-18T19:12:14;1.83;;;0.40;;
66127;SDS011;52925;52.436;-1.952;2023-09-18T19:13:35;1.60;;;0.50;;
66127;SDS011;52925;52.436;-1.952;2023-09-18T19:14:59;2.13;;;0.60;;
66127;SDS011;52925;52.436;-1.952;2023-09-18T19:16:19;2.50;;;0.60;;
66127;SDS011;52925;52.436;-1.952;2023-09-18T19:17:40;3.60;;;0.60;;
66127;SDS011;52925;52.436;-1.952;2023-09-18T19:19:00;1.27;;;0.33;;
66127;SDS011;52925;52.436;-1.952;2023-09-18T19:20:23;0.97;;;0.33;;
66127;SDS011;52925;52.436;-1.952;2023-09-18T19:21:44;2.63;;;0.43;;
66127;SDS011;52925;52.436;-1.952;2023-09-18T19:23:05;1.77;;;0.40;;
66127;SDS011;52925;52.436;-1.952;2023-09-18T19:24:25;1.57;;;0.70;;
66127;SDS011;52925;52.436;-1.952;2023-09-18T19:25:46;1.80;;;0.50;;
66127;SDS011;52925;52.436;-1.952;2023-09-18T19:27:08;1.43;;;0.53;;
66127;SDS011;52925;52.436;-1.952;2023-09-18T19:28:29;1.13;;;0.47;;
66127;SDS011;52925;52.436;-1.952;2023-09-18T19:29:49;1.20;;;0.43;;
66127;SDS011;52925;52.436;-1.952;2023-09-18T19:31:11;2.13;;;0.60;;
66127;SDS011;52925;52.436;-1.952;2023-09-18T19:32:36;1.60;;;0.60;;
66127;SDS011;52925;52.436;-1.952;2023-09-18T19:33:58;2.87;;;0.50;;
66127;SDS011;52925;52.436;-1.952;2023-09-18T19:35:20;2.37;;;0.50;;
66127;SDS011;52925;52.436;-1.952;2023-09-18T19:36:42;1.30;;;0.40;;
66127;SDS011;52925;52.436;-1.952;2023-09-18T19:38:04;2.97;;;0.60;;
66127;SDS011;52925;52.436;-1.952;2023-09-18T19:39:25;3.23;;;0.70;;
66127;SDS011;52925;52.436;-1.952;2023-09-18T19:40:45;1.43;;;0.43;;
66127;SDS011;52925;52.436;-1.952;2023-09-18T19:42:08;0.70;;;0.40;;
66127;SDS011;52925;52.436;-1.952;2023-09-18T19:43:29;3.17;;;0.70;;
66127;SDS011;52925;52.436;-1.952;2023-09-18T19:44:49;2.57;;;0.60;;
66127;SDS011;52925;52.436;-1.952;2023-09-18T19:46:10;1.53;;;0.60;;
66127;SDS011;52925;52.436;-1.952;2023-09-18T19:47:31;1.80;;;0.60;;
66127;SDS011;52925;52.436;-1.952;2023-09-18T19:48:51;1.87;;;0.57;;
66127;SDS011;52925;52.436;-1.952;2023-09-18T19:50:12;1.67;;;0.67;;
66127;SDS011;52925;52.436;-1.952;2023-09-18T19:51:34;1.20;;;0.50;;
66127;SDS011;52925;52.436;-1.952;2023-09-18T19:52:58;2.33;;;0.73;;
66127;SDS011;52925;52.436;-1.952;2023-09-18T19:54:19;1.97;;;0.53;;
66127;SDS011;52925;52.436;-1.952;2023-09-18T19:55:41;3.47;;;0.60;;
66127;SDS011;52925;52.436;-1.952;2023-09-18T19:57:02;1.53;;;0.50;;
66127;SDS011;52925;52.436;-1.952;2023-09-18T19:58:22;2.17;;;0.60;;
66127;SDS011;52925;52.436;-1.952;2023-09-18T19:59:43;2.33;;;0.60;;
66127;SDS011;52925;52.436;-1.952;2023-09-18T20:01:04;2.67;;;0.60;;
66127;SDS011;52925;52.436;-1.952;2023-09-18T20:02:25;2.80;;;0.70;;
66127;SDS011;52925;52.436;-1.952;2023-09-18T20:03:45;1.53;;;0.50;;
66127;SDS011;52925;52.436;-1.952;2023-09-18T20:05:06;2.67;;;0.60;;
66127;SDS011;52925;52.436;-1.952;2023-09-18T20:06:28;1.47;;;0.67;;
66127;SDS011;52925;52.436;-1.952;2023-09-18T20:07:49;2.97;;;0.87;;
66127;SDS011;52925;52.436;-1.952;2023-09-18T20:09:10;2.67;;;0.77;;
66127;SDS011;52925;52.436;-1.952;2023-09-18T20:10:31;1.57;;;0.70;;
66127;SDS011;52925;52.436;-1.952;2023-09-18T20:11:53;5.43;;;0.70;;
66127;SDS011;52925;52.436;-1.952;2023-09-18T20:13:13;2.43;;;0.80;;
66127;SDS011;52925;52.436;-1.952;2023-09-18T20:14:33;2.70;;;0.67;;
66127;SDS011;52925;52.436;-1.952;2023-09-18T20:15:55;1.77;;;0.43;;
66127;SDS011;52925;52.436;-1.952;2023-09-18T20:17:19;3.47;;;0.80;;
66127;SDS011;52925;52.436;-1.952;2023-09-18T20:18:41;2.17;;;0.70;;
66127;SDS011;52925;52.436;-1.952;2023-09-18T20:20:02;2.60;;;1.00;;
66127;SDS011;52925;52.436;-1.952;2023-09-18T20:21:25;2.80;;;0.70;;
66127;SDS011;52925;52.436;-1.952;2023-09-18T20:22:46;2.87;;;0.80;;
66127;SDS011;52925;52.436;-1.952;2023-09-18T20:24:07;3.83;;;0.70;;
66127;SDS011;52925;52.436;-1.952;2023-09-18T20:25:29;4.03;;;0.60;;
66127;SDS011;52925;52.436;-1.952;2023-09-18T20:26:49;1.93;;;0.63;;
66127;SDS011;52925;52.436;-1.952;2023-09-18T20:28:10;3.23;;;0.77;;
66127;SDS011;52925;52.436;-1.952;2023-09-18T20:29:30;3.47;;;0.70;;
66127;SDS011;52925;52.436;-1.952;2023-09-18T20:30:51;2.20;;;0.87;;
66127;SDS011;52925;52.436;-1.952;2023-09-18T20:32:11;1.13;;;0.60;;
66127;SDS011;52925;52.436;-1.952;2023-09-18T20:33:32;4.23;;;0.83;;
66127;SDS011;52925;52.436;-1.952;2023-09-18T20:34:53;1.97;;;0.70;;
66127;SDS011;52925;52.436;-1.952;2023-09-18T20:36:14;2.00;;;0.90;;
66127;SDS011;52925;52.436;-1.952;2023-09-18T20:37:35;3.83;;;0.90;;
66127;SDS011;52925;52.436;-1.952;2023-09-18T20:38:56;2.63;;;0.70;;
66127;SDS011;52925;52.436;-1.952;2023-09-18T20:40:16;3.10;;;0.80;;
66127;SDS011;52925;52.436;-1.952;2023-09-18T20:41:39;3.03;;;0.80;;
66127;SDS011;52925;52.436;-1.952;2023-09-18T20:42:59;3.03;;;0.73;;
66127;SDS011;52925;52.436;-1.952;2023-09-18T20:44:20;4.10;;;1.00;;
66127;SDS011;52925;52.436;-1.952;2023-09-18T20:45:41;2.33;;;0.70;;
66127;SDS011;52925;52.436;-1.952;2023-09-18T20:47:02;2.80;;;0.90;;
66127;SDS011;52925;52.436;-1.952;2023-09-18T20:48:21;3.37;;;0.90;;
66127;SDS011;52925;52.436;-1.952;2023-09-18T20:49:43;4.03;;;0.97;;
66127;SDS011;52925;52.436;-1.952;2023-09-18T20:51:06;1.50;;;0.60;;
66127;SDS011;52925;52.436;-1.952;2023-09-18T20:52:28;3.20;;;0.70;;
66127;SDS011;52925;52.436;-1.952;2023-09-18T20:53:48;1.87;;;0.80;;
66127;SDS011;52925;52.436;-1.952;2023-09-18T20:55:09;1.50;;;0.60;;
66127;SDS011;52925;52.436;-1.952;2023-09-18T20:56:29;3.40;;;0.70;;
66127;SDS011;52925;52.436;-1.952;2023-09-18T20:57:52;5.17;;;0.80;;
66127;SDS011;52925;52.436;-1.952;2023-09-18T20:59:11;2.83;;;0.90;;
66127;SDS011;52925;52.436;-1.952;2023-09-18T21:00:32;2.80;;;0.80;;
66127;SDS011;52925;52.436;-1.952;2023-09-18T21:01:54;1.87;;;0.83;;
66127;SDS011;52925;52.436;-1.952;2023-09-18T21:03:14;2.00;;;0.80;;
66127;SDS011;52925;52.436;-1.952;2023-09-18T21:04:34;2.33;;;0.90;;
66127;SDS011;52925;52.436;-1.952;2023-09-18T21:05:56;2.47;;;0.70;;
66127;SDS011;52925;52.436;-1.952;2023-09-18T21:07:16;1.70;;;0.70;;
66127;SDS011;52925;52.436;-1.952;2023-09-18T21:08:38;3.47;;;0.80;;
66127;SDS011;52925;52.436;-1.952;2023-09-18T21:09:58;3.87;;;0.70;;
66127;SDS011;52925;52.436;-1.952;2023-09-18T21:11:20;3.00;;;0.70;;
66127;SDS011;52925;52.436;-1.952;2023-09-18T21:12:39;2.60;;;0.80;;
66127;SDS011;52925;52.436;-1.952;2023-09-18T21:14:02;2.57;;;0.80;;
66127;SDS011;52925;52.436;-1.952;2023-09-18T21:15:22;4.70;;;0.93;;
66127;SDS011;52925;52.436;-1.952;2023-09-18T21:16:43;3.67;;;0.90;;
66127;SDS011;52925;52.436;-1.952;2023-09-18T21:18:04;4.50;;;0.90;;
66127;SDS011;52925;52.436;-1.952;2023-09-18T21:19:25;3.57;;;0.97;;
66127;SDS011;52925;52.436;-1.952;2023-09-18T21:20:45;2.27;;;0.80;;
66127;SDS011;52925;52.436;-1.952;2023-09-18T21:22:06;4.27;;;1.17;;
66127;SDS011;52925;52.436;-1.952;2023-09-18T21:23:26;4.40;;;0.90;;
66127;SDS011;52925;52.436;-1.952;2023-09-18T21:24:46;4.70;;;1.03;;
66127;SDS011;52925;52.436;-1.952;2023-09-18T21:26:07;3.70;;;1.20;;
66127;SDS011;52925;52.436;-1.952;2023-09-18T21:27:28;3.40;;;0.70;;
66127;SDS011;52925;52.436;-1.952;2023-09-18T21:28:48;3.47;;;1.00;;
66127;SDS011;52925;52.436;-1.952;2023-09-18T21:30:12;4.20;;;1.00;;
66127;SDS011;52925;52.436;-1.952;2023-09-18T21:31:32;4.10;;;1.13;;
66127;SDS011;52925;52.436;-1.952;2023-09-18T21:32:54;5.73;;;1.20;;
66127;SDS011;52925;52.436;-1.952;2023-09-18T21:34:14;3.53;;;0.90;;
66127;SDS011;52925;52.436;-1.952;2023-09-18T21:35:35;4.63;;;0.80;;
66127;SDS011;52925;52.436;-1.952;2023-09-18T21:36:55;4.17;;;0.70;;
66127;SDS011;52925;52.436;-1.952;2023-09-18T21:38:16;2.50;;;0.70;;
66127;SDS011;52925;52.436;-1.952;2023-09-18T21:39:37;2.80;;;0.90;;
66127;SDS011;52925;52.436;-1.952;2023-09-18T21:40:57;3.93;;;0.67;;
66127;SDS011;52925;52.436;-1.952;2023-09-18T21:42:17;4.13;;;1.20;;
66127;SDS011;52925;52.436;-1.952;2023-09-18T21:43:38;4.93;;;1.20;;
66127;SDS011;52925;52.436;-1.952;2023-09-18T21:44:58;5.47;;;0.90;;
66127;SDS011;52925;52.436;-1.952;2023-09-18T21:46:20;3.57;;;0.90;;
66127;SDS011;52925;52.436;-1.952;2023-09-18T21:47:41;4.77;;;1.10;;
66127;SDS011;52925;52.436;-1.952;2023-09-18T21:49:01;5.30;;;1.10;;
66127;SDS011;52925;52.436;-1.952;2023-09-18T21:50:21;4.70;;;1.27;;
66127;SDS011;52925;52.436;-1.952;2023-09-18T21:51:43;5.07;;;1.00;;
66127;SDS011;52925;52.436;-1.952;2023-09-18T21:53:03;3.77;;;1.00;;
66127;SDS011;52925;52.436;-1.952;2023-09-18T21:54:25;3.50;;;0.70;;
66127;SDS011;52925;52.436;-1.952;2023-09-18T21:55:45;3.30;;;1.00;;
66127;SDS011;52925;52.436;-1.952;2023-09-18T21:57:08;5.63;;;0.93;;
66127;SDS011;52925;52.436;-1.952;2023-09-18T21:58:28;4.87;;;0.93;;
66127;SDS011;52925;52.436;-1.952;2023-09-18T21:59:48;5.93;;;1.00;;
66127;SDS011;52925;52.436;-1.952;2023-09-18T22:01:08;4.00;;;1.10;;
66127;SDS011;52925;52.436;-1.952;2023-09-18T22:02:32;4.43;;;1.10;;
66127;SDS011;52925;52.436;-1.952;2023-09-18T22:03:52;3.27;;;0.97;;
66127;SDS011;52925;52.436;-1.952;2023-09-18T22:05:13;4.37;;;0.90;;
66127;SDS011;52925;52.436;-1.952;2023-09-18T22:06:33;6.17;;;1.50;;
66127;SDS011;52925;52.436;-1.952;2023-09-18T22:07:54;4.83;;;0.90;;
66127;SDS011;52925;52.436;-1.952;2023-09-18T22:09:14;7.27;;;0.90;;
66127;SDS011;52925;52.436;-1.952;2023-09-18T22:10:35;4.67;;;1.40;;
66127;SDS011;52925;52.436;-1.952;2023-09-18T22:11:55;5.30;;;1.10;;
66127;SDS011;52925;52.436;-1.952;2023-09-18T22:13:17;3.23;;;0.90;;
66127;SDS011;52925;52.436;-1.952;2023-09-18T22:14:37;4.73;;;0.77;;
66127;SDS011;52925;52.436;-1.952;2023-09-18T22:15:58;5.90;;;1.33;;
66127;SDS011;52925;52.436;-1.952;2023-09-18T22:17:18;3.60;;;0.83;;
66127;SDS011;52925;52.436;-1.952;2023-09-18T22:18:40;4.30;;;0.93;;
66127;SDS011;52925;52.436;-1.952;2023-09-18T22:20:02;4.33;;;1.20;;
66127;SDS011;52925;52.436;-1.952;2023-09-18T22:21:23;5.63;;;1.13;;
66127;SDS011;52925;52.436;-1.952;2023-09-18T22:22:44;6.20;;;1.00;;
66127;SDS011;52925;52.436;-1.952;2023-09-18T22:24:06;1.77;;;0.83;;
66127;SDS011;52925;52.436;-1.952;2023-09-18T22:25:26;4.93;;;1.27;;
66127;SDS011;52925;52.436;-1.952;2023-09-18T22:26:47;3.67;;;0.97;;
66127;SDS011;52925;52.436;-1.952;2023-09-18T22:28:07;4.87;;;1.00;;
66127;SDS011;52925;52.436;-1.952;2023-09-18T22:29:28;2.70;;;0.90;;
66127;SDS011;52925;52.436;-1.952;2023-09-18T22:30:49;6.93;;;1.10;;
66127;SDS011;52925;52.436;-1.952;2023-09-18T22:32:10;7.57;;;1.10;;
66127;SDS011;52925;52.436;-1.952;2023-09-18T22:33:30;3.77;;;0.97;;
66127;SDS011;52925;52.436;-1.952;2023-09-18T22:34:52;4.03;;;1.00;;
66127;SDS011;52925;52.436;-1.952;2023-09-18T22:36:11;4.67;;;0.97;;
66127;SDS011;52925;52.436;-1.952;2023-09-18T22:37:33;5.53;;;1.20;;
66127;SDS011;52925;52.436;-1.952;2023-09-18T22:38:55;4.17;;;1.00;;
66127;SDS011;52925;52.436;-1.952;2023-09-18T22:55:39;4.30;;;1.30;;
66127;SDS011;52925;52.436;-1.952;2023-09-18T22:56:59;4.17;;;0.93;;
66127;SDS011;52925;52.436;-1.952;2023-09-18T22:58:20;5.87;;;1.20;;
66127;SDS011;52925;52.436;-1.952;2023-09-18T22:59:41;10.73;;;1.30;;
66127;SDS011;52925;52.436;-1.952;2023-09-18T23:01:01;4.37;;;1.13;;
66127;SDS011;52925;52.436;-1.952;2023-09-18T23:02:22;6.27;;;1.37;;
66127;SDS011;52925;52.436;-1.952;2023-09-18T23:03:47;6.30;;;1.23;;
66127;SDS011;52925;52.436;-1.952;2023-09-18T23:05:07;7.23;;;1.40;;
66127;SDS011;52925;52.436;-1.952;2023-09-18T23:06:30;4.43;;;0.90;;
66127;SDS011;52925;52.436;-1.952;2023-09-18T23:07:53;5.33;;;1.10;;
66127;SDS011;52925;52.436;-1.952;2023-09-18T23:09:14;5.53;;;1.10;;
66127;SDS011;52925;52.436;-1.952;2023-09-18T23:10:36;6.23;;;1.47;;
66127;SDS011;52925;52.436;-1.952;2023-09-18T23:11:57;4.90;;;1.10;;
66127;SDS011;52925;52.436;-1.952;2023-09-18T23:13:18;4.50;;;1.10;;
66127;SDS011;52925;52.436;-1.952;2023-09-18T23:14:38;7.57;;;1.43;;
66127;SDS011;52925;52.436;-1.952;2023-09-18T23:15:59;6.57;;;1.10;;
66127;SDS011;52925;52.436;-1.952;2023-09-18T23:17:19;4.37;;;1.10;;
66127;SDS011;52925;52.436;-1.952;2023-09-18T23:18:39;3.67;;;1.00;;
66127;SDS011;52925;52.436;-1.952;2023-09-18T23:20:00;4.60;;;1.47;;
66127;SDS011;52925;52.436;-1.952;2023-09-18T23:21:28;4.83;;;1.40;;
66127;SDS011;52925;52.436;-1.952;2023-09-18T23:22:51;6.60;;;1.50;;
66127;SDS011;52925;52.436;-1.952;2023-09-18T23:24:14;5.83;;;1.30;;
66127;SDS011;52925;52.436;-1.952;2023-09-18T23:25:35;8.20;;;1.60;;
66127;SDS011;52925;52.436;-1.952;2023-09-18T23:27:01;5.27;;;1.57;;
66127;SDS011;52925;52.436;-1.952;2023-09-18T23:28:21;5.00;;;1.40;;
66127;SDS011;52925;52.436;-1.952;2023-09-18T23:29:42;5.40;;;1.23;;
66127;SDS011;52925;52.436;-1.952;2023-09-18T23:31:02;5.80;;;1.40;;
66127;SDS011;52925;52.436;-1.952;2023-09-18T23:32:24;6.60;;;1.30;;
66127;SDS011;52925;52.436;-1.952;2023-09-18T23:33:44;4.33;;;1.40;;
66127;SDS011;52925;52.436;-1.952;2023-09-18T23:35:06;7.03;;;1.30;;
66127;SDS011;52925;52.436;-1.952;2023-09-18T23:36:31;6.93;;;1.20;;
66127;SDS011;52925;52.436;-1.952;2023-09-18T23:37:55;5.00;;;1.30;;
66127;SDS011;52925;52.436;-1.952;2023-09-18T23:39:17;8.33;;;1.50;;
66127;SDS011;52925;52.436;-1.952;2023-09-18T23:40:39;6.53;;;1.40;;
66127;SDS011;52925;52.436;-1.952;2023-09-18T23:42:00;9.90;;;1.30;;
66127;SDS011;52925;52.436;-1.952;2023-09-18T23:43:22;5.67;;;1.40;;
66127;SDS011;52925;52.436;-1.952;2023-09-18T23:44:43;5.40;;;1.30;;
66127;SDS011;52925;52.436;-1.952;2023-09-18T23:46:04;7.70;;;1.60;;
66127;SDS011;52925;52.436;-1.952;2023-09-18T23:47:29;5.20;;;1.20;;
66127;SDS011;52925;52.436;-1.952;2023-09-18T23:48:50;8.03;;;1.50;;
66127;SDS011;52925;52.436;-1.952;2023-09-18T23:50:11;4.57;;;1.10;;
66127;SDS011;52925;52.436;-1.952;2023-09-18T23:51:32;9.40;;;1.57;;
66127;SDS011;52925;52.436;-1.952;2023-09-18T23:52:55;6.90;;;1.40;;
66127;SDS011;52925;52.436;-1.952;2023-09-18T23:54:19;9.60;;;1.80;;
66127;SDS011;52925;52.436;-1.952;2023-09-18T23:55:41;6.03;;;1.80;;
66127;SDS011;52925;52.436;-1.952;2023-09-18T23:57:03;10.27;;;1.53;;
66127;SDS011;52925;52.436;-1.952;2023-09-18T23:58:26;7.80;;;1.40;;
66127;SDS011;52925;52.436;-1.952;2023-09-18T23:59:48;5.23;;;1.17;;
